sensor_id;sensor_type;location;lat;lon;timestamp;pressure;altitude;pressure_sealevel;temperature;humidity
32324;BME280;25666;44.350;9.222;2023-01-10T00:00:24;100944.88;;;11.23;48.17
32324;BME280;25666;44.350;9.222;2023-01-10T00:02:51;100946.03;;;11.22;47.22
32324;BME280;25666;44.350;9.222;2023-01-10T00:05:17;100946.75;;;11.19;49.73
32324;BME280;25666;44.350;9.222;2023-01-10T00:07:43;100950.22;;;11.16;48.37
32324;BME280;25666;44.350;9.222;2023-01-10T00:10:09;100947.31;;;11.25;46.04
32324;BME280;25666;44.350;9.222;2023-01-10T00:12:35;100958.59;;;11.16;47.26
32324;BME280;25666;44.350;9.222;2023-01-10T00:15:20;100943.94;;;11.32;44.72
32324;BME280;25666;44.350;9.222;2023-01-10T00:17:45;100957.06;;;11.19;47.06
32324;BME280;25666;44.350;9.222;2023-01-10T00:20:11;100953.69;;;11.25;45.57
32324;BME280;25666;44.350;9.222;2023-01-10T00:22:37;100956.47;;;11.38;43.52
32324;BME280;25666;44.350;9.222;2023-01-10T00:25:02;100964.50;;;11.39;44.31
32324;BME280;25666;44.350;9.222;2023-01-10T00:27:28;100969.00;;;11.44;43.26
32324;BME280;25666;44.350;9.222;2023-01-10T00:29:53;100982.16;;;11.43;42.90
32324;BME280;25666;44.350;9.222;2023-01-10T00:32:25;100977.38;;;11.32;43.61
32324;BME280;25666;44.350;9.222;2023-01-10T00:34:51;100982.03;;;11.40;42.58
32324;BME280;25666;44.350;9.222;2023-01-10T00:37:17;100987.69;;;11.55;41.40
32324;BME280;25666;44.350;9.222;2023-01-10T00:39:45;100999.19;;;11.54;41.00
32324;BME280;25666;44.350;9.222;2023-01-10T00:42:11;101000.69;;;11.63;40.10
32324;BME280;25666;44.350;9.222;2023-01-10T00:44:55;100991.97;;;11.65;39.50
32324;BME280;25666;44.350;9.222;2023-01-10T00:47:21;101012.91;;;11.71;39.54
32324;BME280;25666;44.350;9.222;2023-01-10T00:49:46;101011.59;;;11.68;40.29
32324;BME280;25666;44.350;9.222;2023-01-10T00:52:12;101013.72;;;11.71;39.99
32324;BME280;25666;44.350;9.222;2023-01-10T00:54:37;101018.34;;;11.67;39.80
32324;BME280;25666;44.350;9.222;2023-01-10T00:57:03;101021.03;;;11.64;40.00
32324;BME280;25666;44.350;9.222;2023-01-10T00:59:28;101028.94;;;11.74;39.40
32324;BME280;25666;44.350;9.222;2023-01-10T01:01:54;101038.44;;;11.85;38.87
32324;BME280;25666;44.350;9.222;2023-01-10T01:04:20;101025.78;;;11.75;39.03
32324;BME280;25666;44.350;9.222;2023-01-10T01:06:45;101038.13;;;11.74;38.30
32324;BME280;25666;44.350;9.222;2023-01-10T01:09:12;101047.97;;;11.84;38.10
32324;BME280;25666;44.350;9.222;2023-01-10T01:11:38;101046.56;;;11.90;38.16
32324;BME280;25666;44.350;9.222;2023-01-10T01:14:07;101051.69;;;11.76;39.62
32324;BME280;25666;44.350;9.222;2023-01-10T01:16:32;101051.56;;;11.85;38.45
32324;BME280;25666;44.350;9.222;2023-01-10T01:18:58;101058.69;;;11.70;39.22
32324;BME280;25666;44.350;9.222;2023-01-10T01:21:23;101058.69;;;11.70;38.64
32324;BME280;25666;44.350;9.222;2023-01-10T01:23:55;101066.78;;;11.63;39.55
32324;BME280;25666;44.350;9.222;2023-01-10T01:26:27;101075.16;;;11.63;40.34
32324;BME280;25666;44.350;9.222;2023-01-10T01:28:52;101071.66;;;11.54;40.87
32324;BME280;25666;44.350;9.222;2023-01-10T01:31:21;101078.88;;;11.43;41.79
32324;BME280;25666;44.350;9.222;2023-01-10T01:33:51;101068.31;;;11.36;42.39
32324;BME280;25666;44.350;9.222;2023-01-10T01:36:16;101076.66;;;11.24;43.37
32324;BME280;25666;44.350;9.222;2023-01-10T01:38:42;101075.84;;;11.23;44.21
32324;BME280;25666;44.350;9.222;2023-01-10T01:41:07;101087.00;;;11.23;43.65
32324;BME280;25666;44.350;9.222;2023-01-10T01:43:59;101089.53;;;11.16;42.84
32324;BME280;25666;44.350;9.222;2023-01-10T01:46:25;101087.88;;;11.15;43.82
32324;BME280;25666;44.350;9.222;2023-01-10T01:48:51;101096.34;;;11.07;44.11
32324;BME280;25666;44.350;9.222;2023-01-10T01:51:19;101098.44;;;11.10;43.89
32324;BME280;25666;44.350;9.222;2023-01-10T01:53:50;101104.03;;;11.10;45.11
32324;BME280;25666;44.350;9.222;2023-01-10T01:56:33;101107.47;;;10.95;46.20
32324;BME280;25666;44.350;9.222;2023-01-10T01:59:11;101113.03;;;10.95;47.84
32324;BME280;25666;44.350;9.222;2023-01-10T02:01:39;101115.00;;;10.94;45.83
32324;BME280;25666;44.350;9.222;2023-01-10T02:04:13;101117.66;;;10.91;45.93
32324;BME280;25666;44.350;9.222;2023-01-10T02:06:41;101129.84;;;10.86;48.33
32324;BME280;25666;44.350;9.222;2023-01-10T02:11:56;101122.50;;;10.82;46.76
32324;BME280;25666;44.350;9.222;2023-01-10T02:14:23;101130.72;;;10.78;46.72
32324;BME280;25666;44.350;9.222;2023-01-10T02:16:51;101139.56;;;10.80;46.29
32324;BME280;25666;44.350;9.222;2023-01-10T02:28:35;101136.38;;;10.69;47.39
32324;BME280;25666;44.350;9.222;2023-01-10T02:37:19;101156.22;;;10.68;48.41
32324;BME280;25666;44.350;9.222;2023-01-10T02:45:43;101174.06;;;10.67;48.45
32324;BME280;25666;44.350;9.222;2023-01-10T02:47:59;101178.41;;;10.56;52.18
32324;BME280;25666;44.350;9.222;2023-01-10T02:53:24;101189.00;;;10.42;69.28
32324;BME280;25666;44.350;9.222;2023-01-10T02:58:49;101198.56;;;10.32;57.01
32324;BME280;25666;44.350;9.222;2023-01-10T03:10:31;101200.06;;;10.30;53.84
32324;BME280;25666;44.350;9.222;2023-01-10T03:13:05;101198.44;;;10.29;58.21
32324;BME280;25666;44.350;9.222;2023-01-10T03:15:36;101194.69;;;10.25;57.04
32324;BME280;25666;44.350;9.222;2023-01-10T03:18:09;101209.63;;;10.20;63.31
32324;BME280;25666;44.350;9.222;2023-01-10T03:20:38;101213.53;;;10.19;57.88
32324;BME280;25666;44.350;9.222;2023-01-10T03:23:07;101205.81;;;10.25;57.69
32324;BME280;25666;44.350;9.222;2023-01-10T03:25:36;101212.56;;;10.15;63.05
32324;BME280;25666;44.350;9.222;2023-01-10T03:28:29;101213.41;;;10.15;57.17
32324;BME280;25666;44.350;9.222;2023-01-10T03:31:05;101209.00;;;10.14;58.71
32324;BME280;25666;44.350;9.222;2023-01-10T03:33:33;101215.72;;;10.13;67.82
32324;BME280;25666;44.350;9.222;2023-01-10T03:38:50;101228.75;;;10.13;59.16
32324;BME280;25666;44.350;9.222;2023-01-10T03:41:28;101246.78;;;10.15;55.02
32324;BME280;25666;44.350;9.222;2023-01-10T03:44:17;101238.34;;;10.33;50.89
32324;BME280;25666;44.350;9.222;2023-01-10T03:47:39;101244.53;;;10.38;51.01
32324;BME280;25666;44.350;9.222;2023-01-10T03:50:20;101247.88;;;10.52;48.23
32324;BME280;25666;44.350;9.222;2023-01-10T03:52:46;101247.00;;;10.60;48.89
32324;BME280;25666;44.350;9.222;2023-01-10T03:55:14;101250.88;;;10.68;47.18
32324;BME280;25666;44.350;9.222;2023-01-10T03:57:44;101249.59;;;10.86;44.99
32324;BME280;25666;44.350;9.222;2023-01-10T04:00:14;101248.78;;;10.86;44.96
32324;BME280;25666;44.350;9.222;2023-01-10T04:02:40;101258.16;;;11.02;43.41
32324;BME280;25666;44.350;9.222;2023-01-10T04:05:06;101250.38;;;11.07;43.27
32324;BME280;25666;44.350;9.222;2023-01-10T04:07:32;101259.34;;;11.13;42.78
32324;BME280;25666;44.350;9.222;2023-01-10T04:09:57;101269.66;;;11.12;44.90
32324;BME280;25666;44.350;9.222;2023-01-10T04:12:23;101259.88;;;11.06;42.97
32324;BME280;25666;44.350;9.222;2023-01-10T04:14:48;101275.78;;;11.06;44.64
32324;BME280;25666;44.350;9.222;2023-01-10T04:17:15;101267.38;;;11.14;43.01
32324;BME280;25666;44.350;9.222;2023-01-10T04:19:41;101268.06;;;11.11;42.96
32324;BME280;25666;44.350;9.222;2023-01-10T04:22:07;101273.69;;;11.03;43.93
32324;BME280;25666;44.350;9.222;2023-01-10T04:24:32;101266.81;;;11.00;44.43
32324;BME280;25666;44.350;9.222;2023-01-10T04:26:58;101282.53;;;11.05;45.21
32324;BME280;25666;44.350;9.222;2023-01-10T04:29:24;101279.47;;;10.98;45.04
32324;BME280;25666;44.350;9.222;2023-01-10T04:31:50;101267.19;;;10.99;44.01
32324;BME280;25666;44.350;9.222;2023-01-10T04:34:15;101284.72;;;10.99;45.64
32324;BME280;25666;44.350;9.222;2023-01-10T04:36:41;101284.81;;;11.03;43.92
32324;BME280;25666;44.350;9.222;2023-01-10T04:39:07;101282.31;;;11.10;44.14
32324;BME280;25666;44.350;9.222;2023-01-10T04:41:33;101300.38;;;11.24;41.86
32324;BME280;25666;44.350;9.222;2023-01-10T04:43:59;101304.13;;;11.28;42.34
32324;BME280;25666;44.350;9.222;2023-01-10T04:46:24;101308.44;;;11.38;41.81
32324;BME280;25666;44.350;9.222;2023-01-10T04:48:50;101309.00;;;11.32;41.92
32324;BME280;25666;44.350;9.222;2023-01-10T04:51:16;101305.28;;;11.27;42.14
32324;BME280;25666;44.350;9.222;2023-01-10T04:53:41;101310.97;;;11.31;41.67
32324;BME280;25666;44.350;9.222;2023-01-10T04:56:09;101316.34;;;11.36;41.12
32324;BME280;25666;44.350;9.222;2023-01-10T04:58:39;101306.94;;;11.41;40.32
32324;BME280;25666;44.350;9.222;2023-01-10T05:01:09;101309.72;;;11.41;41.39
32324;BME280;25666;44.350;9.222;2023-01-10T05:03:36;101321.69;;;11.41;40.20
32324;BME280;25666;44.350;9.222;2023-01-10T05:06:02;101322.94;;;11.32;41.33
32324;BME280;25666;44.350;9.222;2023-01-10T05:08:27;101317.50;;;11.56;39.81
32324;BME280;25666;44.350;9.222;2023-01-10T05:10:53;101329.25;;;11.41;41.76
32324;BME280;25666;44.350;9.222;2023-01-10T05:13:19;101329.88;;;11.46;40.72
32324;BME280;25666;44.350;9.222;2023-01-10T05:15:44;101340.88;;;11.43;41.24
32324;BME280;25666;44.350;9.222;2023-01-10T05:18:10;101334.44;;;11.30;41.59
32324;BME280;25666;44.350;9.222;2023-01-10T05:20:35;101336.59;;;11.45;40.58
32324;BME280;25666;44.350;9.222;2023-01-10T05:23:01;101345.78;;;11.46;40.70
32324;BME280;25666;44.350;9.222;2023-01-10T05:25:26;101338.28;;;11.58;39.76
32324;BME280;25666;44.350;9.222;2023-01-10T05:27:52;101344.31;;;11.60;39.56
32324;BME280;25666;44.350;9.222;2023-01-10T05:30:18;101355.94;;;11.62;39.42
32324;BME280;25666;44.350;9.222;2023-01-10T05:32:43;101363.78;;;11.48;41.25
32324;BME280;25666;44.350;9.222;2023-01-10T05:35:09;101347.38;;;11.47;40.52
32324;BME280;25666;44.350;9.222;2023-01-10T05:37:34;101347.13;;;11.60;38.53
32324;BME280;25666;44.350;9.222;2023-01-10T05:40:00;101356.63;;;11.59;41.16
32324;BME280;25666;44.350;9.222;2023-01-10T05:42:26;101359.03;;;11.49;40.89
32324;BME280;25666;44.350;9.222;2023-01-10T05:44:51;101361.00;;;11.48;40.22
32324;BME280;25666;44.350;9.222;2023-01-10T05:47:17;101364.47;;;11.45;41.45
32324;BME280;25666;44.350;9.222;2023-01-10T05:49:42;101377.38;;;11.50;40.54
32324;BME280;25666;44.350;9.222;2023-01-10T05:52:08;101377.25;;;11.46;40.45
32324;BME280;25666;44.350;9.222;2023-01-10T05:54:33;101378.56;;;11.49;40.44
32324;BME280;25666;44.350;9.222;2023-01-10T05:56:59;101382.47;;;11.48;40.40
32324;BME280;25666;44.350;9.222;2023-01-10T05:59:24;101377.44;;;11.41;41.06
32324;BME280;25666;44.350;9.222;2023-01-10T06:01:50;101397.94;;;11.45;40.73
32324;BME280;25666;44.350;9.222;2023-01-10T06:04:15;101402.34;;;11.46;40.93
32324;BME280;25666;44.350;9.222;2023-01-10T06:06:41;101406.75;;;11.47;40.69
32324;BME280;25666;44.350;9.222;2023-01-10T06:09:06;101409.06;;;11.45;40.35
32324;BME280;25666;44.350;9.222;2023-01-10T06:11:32;101401.31;;;11.51;40.70
32324;BME280;25666;44.350;9.222;2023-01-10T06:14:01;101407.56;;;11.48;39.52
32324;BME280;25666;44.350;9.222;2023-01-10T06:16:26;101420.09;;;11.42;40.28
32324;BME280;25666;44.350;9.222;2023-01-10T06:18:52;101422.78;;;11.50;39.95
32324;BME280;25666;44.350;9.222;2023-01-10T06:21:18;101427.09;;;11.48;40.26
32324;BME280;25666;44.350;9.222;2023-01-10T06:23:43;101431.59;;;11.40;40.42
32324;BME280;25666;44.350;9.222;2023-01-10T06:26:09;101434.28;;;11.28;42.14
32324;BME280;25666;44.350;9.222;2023-01-10T06:28:35;101442.31;;;11.29;41.60
32324;BME280;25666;44.350;9.222;2023-01-10T06:31:00;101434.09;;;11.33;41.02
32324;BME280;25666;44.350;9.222;2023-01-10T06:33:26;101434.91;;;11.34;40.92
32324;BME280;25666;44.350;9.222;2023-01-10T06:35:51;101444.75;;;11.31;41.56
32324;BME280;25666;44.350;9.222;2023-01-10T06:38:17;101430.69;;;11.27;41.61
32324;BME280;25666;44.350;9.222;2023-01-10T06:40:43;101435.44;;;11.27;41.13
32324;BME280;25666;44.350;9.222;2023-01-10T06:43:08;101421.69;;;11.22;42.20
32324;BME280;25666;44.350;9.222;2023-01-10T06:45:34;101442.69;;;11.19;43.37
32324;BME280;25666;44.350;9.222;2023-01-10T06:47:59;101448.19;;;11.07;43.46
32324;BME280;25666;44.350;9.222;2023-01-10T06:50:25;101457.22;;;11.04;43.52
32324;BME280;25666;44.350;9.222;2023-01-10T06:52:59;101465.94;;;10.94;45.33
32324;BME280;25666;44.350;9.222;2023-01-10T06:55:25;101459.22;;;11.24;40.70
32324;BME280;25666;44.350;9.222;2023-01-10T06:57:58;101469.78;;;11.40;38.22
32324;BME280;25666;44.350;9.222;2023-01-10T07:00:24;101451.56;;;11.63;37.64
32324;BME280;25666;44.350;9.222;2023-01-10T07:02:52;101465.91;;;11.53;39.62
32324;BME280;25666;44.350;9.222;2023-01-10T07:05:19;101458.03;;;11.55;37.36
32324;BME280;25666;44.350;9.222;2023-01-10T07:07:46;101466.00;;;11.86;36.14
32324;BME280;25666;44.350;9.222;2023-01-10T07:10:11;101479.25;;;11.68;38.32
32324;BME280;25666;44.350;9.222;2023-01-10T07:12:37;101483.72;;;11.40;40.84
32324;BME280;25666;44.350;9.222;2023-01-10T07:15:03;101480.94;;;11.60;37.64
32324;BME280;25666;44.350;9.222;2023-01-10T07:17:29;101479.91;;;11.73;36.28
32324;BME280;25666;44.350;9.222;2023-01-10T07:19:54;101459.72;;;11.47;40.72
32324;BME280;25666;44.350;9.222;2023-01-10T07:22:20;101488.78;;;11.46;39.80
32324;BME280;25666;44.350;9.222;2023-01-10T07:24:45;101488.16;;;11.61;39.02
32324;BME280;25666;44.350;9.222;2023-01-10T07:27:11;101500.38;;;11.48;39.51
32324;BME280;25666;44.350;9.222;2023-01-10T07:29:36;101514.03;;;11.41;40.63
32324;BME280;25666;44.350;9.222;2023-01-10T07:32:02;101510.28;;;11.37;41.65
32324;BME280;25666;44.350;9.222;2023-01-10T07:34:28;101495.41;;;11.83;37.49
32324;BME280;25666;44.350;9.222;2023-01-10T07:36:53;101521.25;;;11.71;37.90
32324;BME280;25666;44.350;9.222;2023-01-10T07:39:18;101526.16;;;11.74;37.63
32324;BME280;25666;44.350;9.222;2023-01-10T07:41:46;101523.84;;;11.97;35.25
32324;BME280;25666;44.350;9.222;2023-01-10T07:44:14;101538.53;;;11.86;37.59
32324;BME280;25666;44.350;9.222;2023-01-10T07:46:40;101538.13;;;11.96;35.53
32324;BME280;25666;44.350;9.222;2023-01-10T07:49:05;101538.28;;;11.99;35.78
32324;BME280;25666;44.350;9.222;2023-01-10T07:51:31;101547.22;;;11.84;38.39
32324;BME280;25666;44.350;9.222;2023-01-10T07:53:56;101538.41;;;11.82;41.02
32324;BME280;25666;44.350;9.222;2023-01-10T07:56:22;101543.56;;;11.92;36.74
32324;BME280;25666;44.350;9.222;2023-01-10T07:58:48;101555.41;;;11.89;38.07
32324;BME280;25666;44.350;9.222;2023-01-10T08:01:13;101549.38;;;11.87;37.06
32324;BME280;25666;44.350;9.222;2023-01-10T08:03:39;101540.63;;;12.09;35.29
32324;BME280;25666;44.350;9.222;2023-01-10T08:06:06;101544.28;;;12.22;34.94
32324;BME280;25666;44.350;9.222;2023-01-10T08:08:33;101558.06;;;12.06;36.68
32324;BME280;25666;44.350;9.222;2023-01-10T08:10:59;101559.38;;;12.09;38.07
32324;BME280;25666;44.350;9.222;2023-01-10T08:13:27;101569.91;;;12.24;36.09
32324;BME280;25666;44.350;9.222;2023-01-10T08:15:52;101571.53;;;12.46;33.94
32324;BME280;25666;44.350;9.222;2023-01-10T08:18:19;101554.28;;;12.44;33.76
32324;BME280;25666;44.350;9.222;2023-01-10T08:20:50;101562.31;;;12.45;33.87
32324;BME280;25666;44.350;9.222;2023-01-10T08:23:16;101572.88;;;12.40;35.13
32324;BME280;25666;44.350;9.222;2023-01-10T08:25:42;101557.81;;;12.53;34.10
32324;BME280;25666;44.350;9.222;2023-01-10T08:28:07;101551.88;;;12.54;33.46
32324;BME280;25666;44.350;9.222;2023-01-10T08:30:33;101591.75;;;12.75;30.97
32324;BME280;25666;44.350;9.222;2023-01-10T08:33:04;101561.16;;;12.91;30.30
32324;BME280;25666;44.350;9.222;2023-01-10T08:35:30;101569.56;;;12.91;28.75
32324;BME280;25666;44.350;9.222;2023-01-10T08:38:00;101558.88;;;13.05;29.16
32324;BME280;25666;44.350;9.222;2023-01-10T08:40:26;101586.06;;;13.17;28.59
32324;BME280;25666;44.350;9.222;2023-01-10T08:42:57;101577.66;;;13.17;28.66
32324;BME280;25666;44.350;9.222;2023-01-10T08:45:22;101610.75;;;13.15;28.26
32324;BME280;25666;44.350;9.222;2023-01-10T08:47:48;101584.56;;;13.56;25.24
32324;BME280;25666;44.350;9.222;2023-01-10T08:50:13;101587.59;;;13.51;26.67
32324;BME280;25666;44.350;9.222;2023-01-10T08:52:39;101597.84;;;13.47;26.31
32324;BME280;25666;44.350;9.222;2023-01-10T08:55:05;101627.56;;;13.51;27.22
32324;BME280;25666;44.350;9.222;2023-01-10T08:57:30;101592.59;;;13.57;25.84
32324;BME280;25666;44.350;9.222;2023-01-10T08:59:56;101608.09;;;13.43;26.87
32324;BME280;25666;44.350;9.222;2023-01-10T09:02:22;101622.66;;;13.48;25.72
32324;BME280;25666;44.350;9.222;2023-01-10T09:04:47;101625.25;;;13.65;25.38
32324;BME280;25666;44.350;9.222;2023-01-10T09:07:13;101650.31;;;13.62;25.10
32324;BME280;25666;44.350;9.222;2023-01-10T09:09:38;101598.56;;;13.68;24.59
32324;BME280;25666;44.350;9.222;2023-01-10T09:12:04;101655.53;;;13.51;25.54
32324;BME280;25666;44.350;9.222;2023-01-10T09:14:49;101625.81;;;13.83;23.27
32324;BME280;25666;44.350;9.222;2023-01-10T09:17:15;101693.91;;;13.75;24.03
32324;BME280;25666;44.350;9.222;2023-01-10T09:19:40;101675.16;;;13.87;23.60
32324;BME280;25666;44.350;9.222;2023-01-10T09:22:06;101654.84;;;13.90;22.51
32324;BME280;25666;44.350;9.222;2023-01-10T09:24:31;101714.66;;;13.98;23.01
32324;BME280;25666;44.350;9.222;2023-01-10T09:26:57;101756.19;;;14.08;22.83
32324;BME280;25666;44.350;9.222;2023-01-10T09:29:22;101693.44;;;14.21;21.87
32324;BME280;25666;44.350;9.222;2023-01-10T09:31:48;101734.97;;;14.31;21.91
32324;BME280;25666;44.350;9.222;2023-01-10T09:34:13;101743.72;;;14.18;22.35
32324;BME280;25666;44.350;9.222;2023-01-10T09:36:39;101730.88;;;14.29;22.09
32324;BME280;25666;44.350;9.222;2023-01-10T09:39:04;101716.41;;;14.27;22.08
32324;BME280;25666;44.350;9.222;2023-01-10T09:52:24;101733.69;;;14.41;22.15
32324;BME280;25666;44.350;9.222;2023-01-10T09:54:54;101733.09;;;14.35;22.35
32324;BME280;25666;44.350;9.222;2023-01-10T09:57:21;101752.81;;;14.39;22.21
32324;BME280;25666;44.350;9.222;2023-01-10T09:59:48;101745.84;;;14.33;22.72
32324;BME280;25666;44.350;9.222;2023-01-10T10:02:41;101721.31;;;14.30;22.98
32324;BME280;25666;44.350;9.222;2023-01-10T10:05:19;101726.44;;;14.28;23.24
32324;BME280;25666;44.350;9.222;2023-01-10T10:07:51;101708.00;;;14.39;22.51
32324;BME280;25666;44.350;9.222;2023-01-10T10:10:26;101722.25;;;14.46;22.82
32324;BME280;25666;44.350;9.222;2023-01-10T10:13:06;101739.66;;;14.39;22.77
32324;BME280;25666;44.350;9.222;2023-01-10T10:34:33;101750.69;;;14.60;23.14
32324;BME280;25666;44.350;9.222;2023-01-10T10:37:10;101746.88;;;14.53;23.45
32324;BME280;25666;44.350;9.222;2023-01-10T10:39:58;101728.28;;;14.60;22.83
32324;BME280;25666;44.350;9.222;2023-01-10T10:42:32;101719.97;;;14.64;22.50
32324;BME280;25666;44.350;9.222;2023-01-10T10:45:28;101714.75;;;14.62;22.95
32324;BME280;25666;44.350;9.222;2023-01-10T10:48:12;101726.97;;;14.70;23.17
32324;BME280;25666;44.350;9.222;2023-01-10T10:53:14;101726.03;;;14.78;23.06
32324;BME280;25666;44.350;9.222;2023-01-10T10:55:40;101729.28;;;14.80;23.50
32324;BME280;25666;44.350;9.222;2023-01-10T10:58:08;101743.75;;;14.82;22.96
32324;BME280;25666;44.350;9.222;2023-01-10T11:00:36;101741.66;;;14.91;23.04
32324;BME280;25666;44.350;9.222;2023-01-10T11:03:31;101740.50;;;14.80;22.67
32324;BME280;25666;44.350;9.222;2023-01-10T11:06:00;101738.25;;;14.85;23.16
32324;BME280;25666;44.350;9.222;2023-01-10T11:08:27;101740.50;;;14.80;22.89
32324;BME280;25666;44.350;9.222;2023-01-10T11:10:56;101746.47;;;14.78;23.24
32324;BME280;25666;44.350;9.222;2023-01-10T11:13:55;101753.88;;;14.98;22.80
32324;BME280;25666;44.350;9.222;2023-01-10T11:16:33;101755.66;;;14.91;23.26
32324;BME280;25666;44.350;9.222;2023-01-10T11:19:17;101750.31;;;14.74;24.97
32324;BME280;25666;44.350;9.222;2023-01-10T11:21:47;101749.16;;;14.75;23.96
32324;BME280;25666;44.350;9.222;2023-01-10T11:24:32;101746.91;;;14.80;24.33
32324;BME280;25666;44.350;9.222;2023-01-10T11:27:01;101758.34;;;14.87;23.72
32324;BME280;25666;44.350;9.222;2023-01-10T11:29:42;101749.13;;;14.87;23.61
32324;BME280;25666;44.350;9.222;2023-01-10T11:32:11;101751.94;;;14.87;24.24
32324;BME280;25666;44.350;9.222;2023-01-10T11:35:01;101752.91;;;15.07;23.24
32324;BME280;25666;44.350;9.222;2023-01-10T11:37:33;101747.75;;;15.09;23.18
32324;BME280;25666;44.350;9.222;2023-01-10T11:40:23;101753.47;;;15.12;23.43
32324;BME280;25666;44.350;9.222;2023-01-10T11:42:51;101753.97;;;15.02;23.90
32324;BME280;25666;44.350;9.222;2023-01-10T11:45:33;101754.53;;;15.08;24.42
32324;BME280;25666;44.350;9.222;2023-01-10T11:48:08;101749.13;;;15.15;23.23
32324;BME280;25666;44.350;9.222;2023-01-10T11:50:42;101750.41;;;15.17;24.04
32324;BME280;25666;44.350;9.222;2023-01-10T11:53:35;101743.69;;;15.06;26.73
32324;BME280;25666;44.350;9.222;2023-01-10T11:56:03;101740.59;;;14.83;27.74
32324;BME280;25666;44.350;9.222;2023-01-10T11:58:31;101746.31;;;14.87;25.77
32324;BME280;25666;44.350;9.222;2023-01-10T12:00:57;101740.56;;;14.95;24.11
32324;BME280;25666;44.350;9.222;2023-01-10T12:03:25;101743.03;;;14.97;25.13
32324;BME280;25666;44.350;9.222;2023-01-10T12:05:59;101756.56;;;14.95;24.66
32324;BME280;25666;44.350;9.222;2023-01-10T12:08:28;101773.16;;;15.00;24.01
32324;BME280;25666;44.350;9.222;2023-01-10T12:11:00;101759.63;;;15.18;23.34
32324;BME280;25666;44.350;9.222;2023-01-10T12:13:26;101763.97;;;15.15;23.67
32324;BME280;25666;44.350;9.222;2023-01-10T12:18:40;101755.72;;;15.07;24.98
32324;BME280;25666;44.350;9.222;2023-01-10T12:21:07;101763.41;;;15.10;25.09
32324;BME280;25666;44.350;9.222;2023-01-10T12:23:34;101761.66;;;15.05;25.22
32324;BME280;25666;44.350;9.222;2023-01-10T12:26:06;101766.88;;;15.19;24.24
32324;BME280;25666;44.350;9.222;2023-01-10T12:28:33;101766.88;;;15.19;24.03
32324;BME280;25666;44.350;9.222;2023-01-10T12:31:01;101785.81;;;15.22;24.04
32324;BME280;25666;44.350;9.222;2023-01-10T12:33:33;101775.47;;;15.38;23.33
32324;BME280;25666;44.350;9.222;2023-01-10T12:39:01;101783.06;;;15.37;23.68
32324;BME280;25666;44.350;9.222;2023-01-10T12:41:48;101786.63;;;15.22;24.33
32324;BME280;25666;44.350;9.222;2023-01-10T12:44:38;101792.84;;;15.16;26.49
32324;BME280;25666;44.350;9.222;2023-01-10T12:49:59;101794.75;;;14.99;29.74
32324;BME280;25666;44.350;9.222;2023-01-10T12:52:36;101801.91;;;14.97;30.15
32324;BME280;25666;44.350;9.222;2023-01-10T12:55:15;101803.81;;;14.81;29.25
32324;BME280;25666;44.350;9.222;2023-01-10T12:57:41;101817.41;;;14.94;29.30
32324;BME280;25666;44.350;9.222;2023-01-10T13:00:20;101806.19;;;15.07;25.11
32324;BME280;25666;44.350;9.222;2023-01-10T13:02:47;101806.03;;;15.15;24.05
32324;BME280;25666;44.350;9.222;2023-01-10T13:05:22;101796.66;;;15.23;24.77
32324;BME280;25666;44.350;9.222;2023-01-10T13:07:49;101804.84;;;15.16;25.58
32324;BME280;25666;44.350;9.222;2023-01-10T13:10:21;101803.25;;;15.15;25.64
32324;BME280;25666;44.350;9.222;2023-01-10T13:13:00;101810.72;;;15.11;26.50
32324;BME280;25666;44.350;9.222;2023-01-10T13:18:29;101799.63;;;15.15;25.48
32324;BME280;25666;44.350;9.222;2023-01-10T13:21:07;101807.59;;;15.40;23.58
32324;BME280;25666;44.350;9.222;2023-01-10T13:23:57;101807.44;;;15.49;23.63
32324;BME280;25666;44.350;9.222;2023-01-10T13:26:24;101807.91;;;15.51;23.24
32324;BME280;25666;44.350;9.222;2023-01-10T13:28:57;101812.38;;;15.40;25.57
32324;BME280;25666;44.350;9.222;2023-01-10T13:31:24;101805.63;;;15.29;25.02
32324;BME280;25666;44.350;9.222;2023-01-10T13:34:00;101803.19;;;15.27;24.43
32324;BME280;25666;44.350;9.222;2023-01-10T13:36:30;101792.38;;;15.41;25.07
32324;BME280;25666;44.350;9.222;2023-01-10T13:39:01;101802.97;;;15.20;28.23
32324;BME280;25666;44.350;9.222;2023-01-10T14:09:05;101816.00;;;15.00;27.01
32324;BME280;25666;44.350;9.222;2023-01-10T14:11:52;101817.66;;;14.89;27.38
32324;BME280;25666;44.350;9.222;2023-01-10T14:14:39;101828.09;;;14.65;29.96
32324;BME280;25666;44.350;9.222;2023-01-10T14:19:45;101830.97;;;14.32;33.64
32324;BME280;25666;44.350;9.222;2023-01-10T14:22:29;101822.22;;;14.09;37.96
32324;BME280;25666;44.350;9.222;2023-01-10T14:25:13;101835.69;;;14.52;28.14
32324;BME280;25666;44.350;9.222;2023-01-10T14:27:46;101836.94;;;14.18;37.79
32324;BME280;25666;44.350;9.222;2023-01-10T14:30:30;101839.78;;;13.85;38.21
32324;BME280;25666;44.350;9.222;2023-01-10T14:33:05;101837.88;;;13.65;39.84
32324;BME280;25666;44.350;9.222;2023-01-10T14:35:36;101846.56;;;13.52;41.63
32324;BME280;25666;44.350;9.222;2023-01-10T14:38:03;101851.00;;;13.32;42.41
32324;BME280;25666;44.350;9.222;2023-01-10T14:42:57;101850.41;;;12.97;46.23
32324;BME280;25666;44.350;9.222;2023-01-10T14:46:02;101848.50;;;12.89;48.86
32324;BME280;25666;44.350;9.222;2023-01-10T14:48:33;101847.28;;;12.78;52.26
32324;BME280;25666;44.350;9.222;2023-01-10T14:53:56;101856.22;;;12.63;67.48
32324;BME280;25666;44.350;9.222;2023-01-10T14:56:24;101864.84;;;12.49;79.24
32324;BME280;25666;44.350;9.222;2023-01-10T14:58:51;101869.00;;;12.43;61.54
32324;BME280;25666;44.350;9.222;2023-01-10T15:01:26;101868.19;;;12.43;60.95
32324;BME280;25666;44.350;9.222;2023-01-10T15:03:52;101873.59;;;12.39;63.19